This is the latest recevied weather packets stored in our database for station/object 9W2IJB-3. If no packets are shown the sender has not sent any weather packets the latest 10 day(s).
| Time | Temp. | Humidity | Pressure | Rain* | Wind** | Luminosity | Snow |
|---|---|---|---|---|---|---|---|
| 1778146180 | 25.56° C | 73% | 1017.9 hPa | - | - | - | - |
| 1778144980 | 26.11° C | 72% | 1017.9 hPa | - | - | - | - |
| 1778143780 | 26.11° C | 72% | 1017.9 hPa | - | - | - | - |
| 1778141895 | 28.89° C | 67% | 1017.7 hPa | - | - | - | - |
| 1778140694 | 29.44° C | 67% | 1017.9 hPa | - | - | - | - |
| 1778139495 | 30° C | 67% | 1018.1 hPa | - | - | - | - |
| 1778138295 | 30° C | 64% | 1018.5 hPa | - | - | - | - |
| 1778137094 | 30° C | 65% | 1018.6 hPa | - | - | - | - |
| 1778135894 | 29.44° C | 69% | 1019 hPa | - | - | - | - |
| 1778134694 | 29.44° C | 69% | 1019.3 hPa | - | - | - | - |
| 1778133494 | 29.44° C | 66% | 1019.5 hPa | - | - | - | - |
| 1778132294 | 30° C | 64% | 1019.8 hPa | - | - | - | - |
| 1778129895 | 31.11° C | 59% | 1020.3 hPa | - | - | - | - |
| 1778128695 | 31.11° C | 59% | 1020.7 hPa | - | - | - | - |
| 1778127495 | 30.56° C | 61% | 1020.9 hPa | - | - | - | - |
| 1778126295 | 30° C | 63% | 1020.9 hPa | - | - | - | - |
| 1778125095 | 30° C | 64% | 1021 hPa | - | - | - | - |
| 1778123895 | 29.44° C | 65% | 1021.1 hPa | - | - | - | - |
| 1778122694 | 30° C | 63% | 1021.1 hPa | - | - | - | - |
| 1778121495 | 29.44° C | 64% | 1021.1 hPa | - | - | - | - |
| 1778120294 | 28.89° C | 67% | 1021 hPa | - | - | - | - |
| 1778119156 | 28.33° C | 68% | 1021 hPa | - | - | - | - |
| 1778119094 | 28.33° C | 68% | 1021 hPa | - | - | - | - |
| 1778117928 | 28.33° C | 69% | 1020.9 hPa | - | - | - | - |
| 1778117894 | 28.33° C | 69% | 1020.9 hPa | - | - | - | - |
* Rain since midnight (hover to see other rain measurements)
** Current wind speed in m/s (hover to see current wind gust speed)